sensor_id;sensor_type;location;lat;lon;timestamp;P1;durP1;ratioP1;P2;durP2;ratioP2
63120;SDS011;54478;48.684;20.114;2023-04-01T00:00:53;17.90;;;10.10;;
63120;SDS011;54478;48.684;20.114;2023-04-01T00:03:22;20.33;;;10.50;;
63120;SDS011;54478;48.684;20.114;2023-04-01T00:05:51;14.38;;;8.82;;
63120;SDS011;54478;48.684;20.114;2023-04-01T00:08:20;16.60;;;10.00;;
63120;SDS011;54478;48.684;20.114;2023-04-01T00:10:48;17.98;;;9.82;;
63120;SDS011;54478;48.684;20.114;2023-04-01T00:13:17;24.80;;;10.05;;
63120;SDS011;54478;48.684;20.114;2023-04-01T00:15:46;17.02;;;9.18;;
63120;SDS011;54478;48.684;20.114;2023-04-01T00:18:14;14.95;;;8.32;;
63120;SDS011;54478;48.684;20.114;2023-04-01T00:20:47;18.08;;;9.25;;
63120;SDS011;54478;48.684;20.114;2023-04-01T00:23:17;21.17;;;11.68;;
63120;SDS011;54478;48.684;20.114;2023-04-01T00:25:46;19.90;;;10.90;;
63120;SDS011;54478;48.684;20.114;2023-04-01T00:28:16;16.67;;;9.10;;
63120;SDS011;54478;48.684;20.114;2023-04-01T00:30:46;14.73;;;8.30;;
63120;SDS011;54478;48.684;20.114;2023-04-01T00:33:15;15.18;;;8.70;;
63120;SDS011;54478;48.684;20.114;2023-04-01T00:35:44;18.45;;;10.43;;
63120;SDS011;54478;48.684;20.114;2023-04-01T00:38:13;19.27;;;9.32;;
63120;SDS011;54478;48.684;20.114;2023-04-01T00:40:42;19.63;;;9.90;;
63120;SDS011;54478;48.684;20.114;2023-04-01T00:43:19;21.40;;;10.25;;
63120;SDS011;54478;48.684;20.114;2023-04-01T00:45:48;17.40;;;10.05;;
63120;SDS011;54478;48.684;20.114;2023-04-01T00:48:18;21.67;;;10.05;;
63120;SDS011;54478;48.684;20.114;2023-04-01T00:50:52;20.15;;;10.02;;
63120;SDS011;54478;48.684;20.114;2023-04-01T00:53:22;21.52;;;9.63;;
63120;SDS011;54478;48.684;20.114;2023-04-01T00:56:31;26.90;;;9.38;;
63120;SDS011;54478;48.684;20.114;2023-04-01T00:58:43;15.82;;;9.45;;
63120;SDS011;54478;48.684;20.114;2023-04-01T01:01:16;19.10;;;9.43;;
63120;SDS011;54478;48.684;20.114;2023-04-01T01:03:42;16.92;;;8.52;;
63120;SDS011;54478;48.684;20.114;2023-04-01T01:06:22;18.10;;;9.20;;
63120;SDS011;54478;48.684;20.114;2023-04-01T01:12:40;14.75;;;8.02;;
63120;SDS011;54478;48.684;20.114;2023-04-01T01:14:52;17.70;;;8.52;;
63120;SDS011;54478;48.684;20.114;2023-04-01T01:20:33;16.88;;;9.60;;
63120;SDS011;54478;48.684;20.114;2023-04-01T01:31:44;16.70;;;8.80;;
63120;SDS011;54478;48.684;20.114;2023-04-01T01:34:32;13.80;;;7.07;;
63120;SDS011;54478;48.684;20.114;2023-04-01T01:37:08;20.17;;;9.30;;
63120;SDS011;54478;48.684;20.114;2023-04-01T01:39:41;18.63;;;9.70;;
63120;SDS011;54478;48.684;20.114;2023-04-01T01:42:11;21.17;;;10.60;;
63120;SDS011;54478;48.684;20.114;2023-04-01T01:44:43;17.25;;;9.35;;
63120;SDS011;54478;48.684;20.114;2023-04-01T01:47:11;16.77;;;8.37;;
63120;SDS011;54478;48.684;20.114;2023-04-01T01:49:41;15.45;;;8.52;;
63120;SDS011;54478;48.684;20.114;2023-04-01T01:52:12;17.48;;;7.25;;
63120;SDS011;54478;48.684;20.114;2023-04-01T01:54:54;13.18;;;6.60;;
63120;SDS011;54478;48.684;20.114;2023-04-01T01:57:31;13.93;;;7.25;;
63120;SDS011;54478;48.684;20.114;2023-04-01T02:00:04;20.05;;;9.75;;
63120;SDS011;54478;48.684;20.114;2023-04-01T02:02:39;16.92;;;9.55;;
63120;SDS011;54478;48.684;20.114;2023-04-01T02:05:10;19.58;;;10.38;;
63120;SDS011;54478;48.684;20.114;2023-04-01T02:07:41;23.45;;;11.55;;
63120;SDS011;54478;48.684;20.114;2023-04-01T02:10:14;19.45;;;10.85;;
63120;SDS011;54478;48.684;20.114;2023-04-01T02:12:43;19.95;;;9.07;;
63120;SDS011;54478;48.684;20.114;2023-04-01T02:15:14;16.10;;;9.55;;
63120;SDS011;54478;48.684;20.114;2023-04-01T02:17:45;21.27;;;11.07;;
63120;SDS011;54478;48.684;20.114;2023-04-01T02:20:17;12.95;;;7.38;;
63120;SDS011;54478;48.684;20.114;2023-04-01T02:22:53;14.50;;;8.07;;
63120;SDS011;54478;48.684;20.114;2023-04-01T02:25:24;19.73;;;8.73;;
63120;SDS011;54478;48.684;20.114;2023-04-01T02:27:53;15.73;;;8.43;;
63120;SDS011;54478;48.684;20.114;2023-04-01T02:30:25;28.02;;;11.05;;
63120;SDS011;54478;48.684;20.114;2023-04-01T02:32:55;19.80;;;8.65;;
63120;SDS011;54478;48.684;20.114;2023-04-01T02:35:26;15.68;;;7.90;;
63120;SDS011;54478;48.684;20.114;2023-04-01T02:37:55;19.75;;;9.13;;
63120;SDS011;54478;48.684;20.114;2023-04-01T02:40:23;13.52;;;7.78;;
63120;SDS011;54478;48.684;20.114;2023-04-01T02:42:52;13.93;;;7.50;;
63120;SDS011;54478;48.684;20.114;2023-04-01T02:45:20;12.65;;;6.72;;
63120;SDS011;54478;48.684;20.114;2023-04-01T02:47:46;14.73;;;7.22;;
63120;SDS011;54478;48.684;20.114;2023-04-01T02:50:14;15.45;;;8.77;;
63120;SDS011;54478;48.684;20.114;2023-04-01T02:52:43;17.58;;;8.35;;
63120;SDS011;54478;48.684;20.114;2023-04-01T02:55:11;15.27;;;7.55;;
63120;SDS011;54478;48.684;20.114;2023-04-01T02:57:39;12.90;;;8.07;;
63120;SDS011;54478;48.684;20.114;2023-04-01T03:00:08;12.20;;;6.10;;
63120;SDS011;54478;48.684;20.114;2023-04-01T03:02:39;9.68;;;5.78;;
63120;SDS011;54478;48.684;20.114;2023-04-01T03:05:07;11.27;;;5.88;;
63120;SDS011;54478;48.684;20.114;2023-04-01T03:07:36;10.30;;;6.03;;
63120;SDS011;54478;48.684;20.114;2023-04-01T03:10:05;11.90;;;6.47;;
63120;SDS011;54478;48.684;20.114;2023-04-01T03:12:34;15.43;;;8.65;;
63120;SDS011;54478;48.684;20.114;2023-04-01T03:15:02;15.68;;;9.07;;
63120;SDS011;54478;48.684;20.114;2023-04-01T03:17:31;11.10;;;7.22;;
63120;SDS011;54478;48.684;20.114;2023-04-01T03:20:00;11.88;;;7.10;;
63120;SDS011;54478;48.684;20.114;2023-04-01T03:22:28;11.32;;;6.65;;
63120;SDS011;54478;48.684;20.114;2023-04-01T03:24:56;10.95;;;6.30;;
63120;SDS011;54478;48.684;20.114;2023-04-01T03:27:25;10.90;;;6.47;;
63120;SDS011;54478;48.684;20.114;2023-04-01T03:29:53;10.68;;;6.80;;
63120;SDS011;54478;48.684;20.114;2023-04-01T03:32:21;14.20;;;7.40;;
63120;SDS011;54478;48.684;20.114;2023-04-01T03:34:50;15.95;;;7.10;;
63120;SDS011;54478;48.684;20.114;2023-04-01T03:37:18;15.52;;;7.03;;
63120;SDS011;54478;48.684;20.114;2023-04-01T03:39:46;12.50;;;6.28;;
63120;SDS011;54478;48.684;20.114;2023-04-01T03:42:14;18.48;;;9.05;;
63120;SDS011;54478;48.684;20.114;2023-04-01T03:44:43;12.13;;;7.10;;
63120;SDS011;54478;48.684;20.114;2023-04-01T03:47:08;12.45;;;7.28;;
63120;SDS011;54478;48.684;20.114;2023-04-01T03:49:39;13.38;;;7.80;;
63120;SDS011;54478;48.684;20.114;2023-04-01T03:52:11;12.27;;;7.07;;
63120;SDS011;54478;48.684;20.114;2023-04-01T03:54:39;13.05;;;7.28;;
63120;SDS011;54478;48.684;20.114;2023-04-01T03:57:08;13.18;;;7.78;;
63120;SDS011;54478;48.684;20.114;2023-04-01T03:59:36;13.20;;;6.70;;
63120;SDS011;54478;48.684;20.114;2023-04-01T04:02:04;10.90;;;6.63;;
63120;SDS011;54478;48.684;20.114;2023-04-01T04:04:33;12.95;;;7.25;;
63120;SDS011;54478;48.684;20.114;2023-04-01T04:07:01;13.13;;;7.00;;
63120;SDS011;54478;48.684;20.114;2023-04-01T04:09:30;14.07;;;7.20;;
63120;SDS011;54478;48.684;20.114;2023-04-01T04:12:00;20.55;;;10.27;;
63120;SDS011;54478;48.684;20.114;2023-04-01T04:14:28;24.05;;;12.52;;
63120;SDS011;54478;48.684;20.114;2023-04-01T04:16:57;21.27;;;12.30;;
63120;SDS011;54478;48.684;20.114;2023-04-01T04:19:25;23.50;;;13.32;;
63120;SDS011;54478;48.684;20.114;2023-04-01T04:21:54;14.18;;;8.05;;
63120;SDS011;54478;48.684;20.114;2023-04-01T04:24:22;19.35;;;7.38;;
63120;SDS011;54478;48.684;20.114;2023-04-01T04:26:51;25.52;;;8.20;;
63120;SDS011;54478;48.684;20.114;2023-04-01T04:29:19;15.30;;;7.55;;
63120;SDS011;54478;48.684;20.114;2023-04-01T04:31:48;28.98;;;13.38;;
63120;SDS011;54478;48.684;20.114;2023-04-01T04:34:16;23.85;;;9.90;;
63120;SDS011;54478;48.684;20.114;2023-04-01T04:36:46;21.38;;;9.27;;
63120;SDS011;54478;48.684;20.114;2023-04-01T04:39:14;20.75;;;7.57;;
63120;SDS011;54478;48.684;20.114;2023-04-01T04:41:43;27.63;;;8.95;;
63120;SDS011;54478;48.684;20.114;2023-04-01T04:44:11;25.30;;;8.05;;
63120;SDS011;54478;48.684;20.114;2023-04-01T04:46:36;30.15;;;8.55;;
63120;SDS011;54478;48.684;20.114;2023-04-01T04:49:07;31.45;;;8.77;;
63120;SDS011;54478;48.684;20.114;2023-04-01T04:51:35;18.13;;;7.95;;
63120;SDS011;54478;48.684;20.114;2023-04-01T04:54:04;18.02;;;7.00;;
63120;SDS011;54478;48.684;20.114;2023-04-01T04:56:33;22.17;;;6.75;;
63120;SDS011;54478;48.684;20.114;2023-04-01T04:59:02;28.48;;;9.40;;
63120;SDS011;54478;48.684;20.114;2023-04-01T05:01:30;21.92;;;8.40;;
63120;SDS011;54478;48.684;20.114;2023-04-01T05:03:58;15.93;;;6.22;;
63120;SDS011;54478;48.684;20.114;2023-04-01T05:06:27;26.77;;;8.38;;
63120;SDS011;54478;48.684;20.114;2023-04-01T05:08:57;42.08;;;17.38;;
63120;SDS011;54478;48.684;20.114;2023-04-01T05:11:26;28.65;;;10.68;;
63120;SDS011;54478;48.684;20.114;2023-04-01T05:13:55;26.73;;;10.38;;
63120;SDS011;54478;48.684;20.114;2023-04-01T05:16:24;21.85;;;9.27;;
63120;SDS011;54478;48.684;20.114;2023-04-01T05:18:52;20.50;;;7.78;;
63120;SDS011;54478;48.684;20.114;2023-04-01T05:21:20;16.48;;;8.48;;
63120;SDS011;54478;48.684;20.114;2023-04-01T05:23:49;16.45;;;7.97;;
63120;SDS011;54478;48.684;20.114;2023-04-01T05:26:17;15.73;;;8.07;;
63120;SDS011;54478;48.684;20.114;2023-04-01T05:28:46;47.95;;;19.30;;
63120;SDS011;54478;48.684;20.114;2023-04-01T05:31:14;13.07;;;7.80;;
63120;SDS011;54478;48.684;20.114;2023-04-01T05:33:42;28.52;;;9.13;;
63120;SDS011;54478;48.684;20.114;2023-04-01T05:36:12;21.35;;;6.88;;
63120;SDS011;54478;48.684;20.114;2023-04-01T05:38:42;48.45;;;18.42;;
63120;SDS011;54478;48.684;20.114;2023-04-01T05:41:11;21.95;;;9.82;;
63120;SDS011;54478;48.684;20.114;2023-04-01T05:43:39;17.10;;;6.60;;
63120;SDS011;54478;48.684;20.114;2023-04-01T05:46:05;20.42;;;10.57;;
63120;SDS011;54478;48.684;20.114;2023-04-01T05:48:34;15.32;;;9.20;;
63120;SDS011;54478;48.684;20.114;2023-04-01T05:51:03;12.02;;;6.63;;
63120;SDS011;54478;48.684;20.114;2023-04-01T05:53:32;12.55;;;6.82;;
63120;SDS011;54478;48.684;20.114;2023-04-01T05:56:04;14.82;;;7.95;;
63120;SDS011;54478;48.684;20.114;2023-04-01T05:58:32;13.23;;;7.82;;
63120;SDS011;54478;48.684;20.114;2023-04-01T06:01:08;14.82;;;7.97;;
63120;SDS011;54478;48.684;20.114;2023-04-01T06:03:38;17.65;;;8.75;;
63120;SDS011;54478;48.684;20.114;2023-04-01T06:06:04;15.95;;;9.25;;
63120;SDS011;54478;48.684;20.114;2023-04-01T06:08:41;19.85;;;10.00;;
63120;SDS011;54478;48.684;20.114;2023-04-01T06:13:42;15.25;;;9.15;;
63120;SDS011;54478;48.684;20.114;2023-04-01T06:19:15;15.27;;;8.57;;
63120;SDS011;54478;48.684;20.114;2023-04-01T06:36:00;13.38;;;6.40;;
63120;SDS011;54478;48.684;20.114;2023-04-01T06:38:30;9.75;;;5.57;;
63120;SDS011;54478;48.684;20.114;2023-04-01T06:46:59;11.57;;;5.20;;
63120;SDS011;54478;48.684;20.114;2023-04-01T06:54:48;11.75;;;5.38;;
63120;SDS011;54478;48.684;20.114;2023-04-01T06:57:38;9.63;;;5.65;;
63120;SDS011;54478;48.684;20.114;2023-04-01T07:00:13;9.52;;;6.30;;
63120;SDS011;54478;48.684;20.114;2023-04-01T07:05:54;10.30;;;5.68;;
63120;SDS011;54478;48.684;20.114;2023-04-01T07:08:26;10.95;;;5.25;;
63120;SDS011;54478;48.684;20.114;2023-04-01T07:11:04;6.93;;;4.45;;
63120;SDS011;54478;48.684;20.114;2023-04-01T07:14:15;8.82;;;5.38;;
63120;SDS011;54478;48.684;20.114;2023-04-01T07:19:02;7.68;;;3.78;;
63120;SDS011;54478;48.684;20.114;2023-04-01T07:24:53;6.28;;;3.50;;
63120;SDS011;54478;48.684;20.114;2023-04-01T07:27:20;9.20;;;4.95;;
63120;SDS011;54478;48.684;20.114;2023-04-01T07:29:48;7.35;;;4.40;;
63120;SDS011;54478;48.684;20.114;2023-04-01T07:35:00;9.57;;;5.28;;
63120;SDS011;54478;48.684;20.114;2023-04-01T07:37:32;8.25;;;4.82;;
63120;SDS011;54478;48.684;20.114;2023-04-01T07:43:03;9.38;;;5.32;;
63120;SDS011;54478;48.684;20.114;2023-04-01T07:48:38;8.45;;;5.20;;
63120;SDS011;54478;48.684;20.114;2023-04-01T07:51:11;7.60;;;4.93;;
63120;SDS011;54478;48.684;20.114;2023-04-01T07:53:48;9.57;;;5.40;;
63120;SDS011;54478;48.684;20.114;2023-04-01T08:07:25;13.55;;;7.05;;
63120;SDS011;54478;48.684;20.114;2023-04-01T08:15:28;11.32;;;5.07;;
63120;SDS011;54478;48.684;20.114;2023-04-01T08:23:27;5.68;;;2.55;;
63120;SDS011;54478;48.684;20.114;2023-04-01T08:25:58;8.30;;;3.67;;
63120;SDS011;54478;48.684;20.114;2023-04-01T08:28:34;3.92;;;1.15;;
63120;SDS011;54478;48.684;20.114;2023-04-01T08:31:05;3.63;;;1.33;;
63120;SDS011;54478;48.684;20.114;2023-04-01T08:33:39;6.18;;;2.60;;
63120;SDS011;54478;48.684;20.114;2023-04-01T08:36:17;3.20;;;1.73;;
63120;SDS011;54478;48.684;20.114;2023-04-01T08:38:54;2.35;;;1.58;;
63120;SDS011;54478;48.684;20.114;2023-04-01T08:44:25;3.70;;;1.40;;
63120;SDS011;54478;48.684;20.114;2023-04-01T08:50:24;1.90;;;1.00;;
63120;SDS011;54478;48.684;20.114;2023-04-01T08:56:09;7.53;;;3.17;;
63120;SDS011;54478;48.684;20.114;2023-04-01T09:10:24;8.73;;;3.53;;
63120;SDS011;54478;48.684;20.114;2023-04-01T09:12:59;3.50;;;1.50;;
63120;SDS011;54478;48.684;20.114;2023-04-01T09:29:49;1.80;;;1.10;;
63120;SDS011;54478;48.684;20.114;2023-04-01T09:40:16;8.90;;;2.63;;
63120;SDS011;54478;48.684;20.114;2023-04-01T09:46:04;2.60;;;1.17;;
63120;SDS011;54478;48.684;20.114;2023-04-01T09:54:24;1.70;;;1.10;;
63120;SDS011;54478;48.684;20.114;2023-04-01T09:59:47;3.33;;;0.75;;
63120;SDS011;54478;48.684;20.114;2023-04-01T10:08:01;4.47;;;2.30;;
63120;SDS011;54478;48.684;20.114;2023-04-01T10:27:47;4.80;;;2.78;;
63120;SDS011;54478;48.684;20.114;2023-04-01T11:04:32;2.78;;;0.80;;
63120;SDS011;54478;48.684;20.114;2023-04-01T11:12:20;0.82;;;0.77;;
63120;SDS011;54478;48.684;20.114;2023-04-01T11:37:10;1.90;;;1.20;;
63120;SDS011;54478;48.684;20.114;2023-04-01T11:42:46;2.40;;;1.60;;
63120;SDS011;54478;48.684;20.114;2023-04-01T11:53:32;1.60;;;0.95;;
63120;SDS011;54478;48.684;20.114;2023-04-01T12:04:41;2.10;;;1.25;;
63120;SDS011;54478;48.684;20.114;2023-04-01T12:39:22;3.65;;;1.60;;
63120;SDS011;54478;48.684;20.114;2023-04-01T12:56:48;1.70;;;0.63;;
63120;SDS011;54478;48.684;20.114;2023-04-01T12:59:20;2.10;;;0.88;;
63120;SDS011;54478;48.684;20.114;2023-04-01T13:01:59;1.45;;;0.68;;
63120;SDS011;54478;48.684;20.114;2023-04-01T13:18:22;3.20;;;1.15;;
63120;SDS011;54478;48.684;20.114;2023-04-01T13:26:14;3.15;;;1.58;;
63120;SDS011;54478;48.684;20.114;2023-04-01T13:28:53;2.22;;;1.27;;
63120;SDS011;54478;48.684;20.114;2023-04-01T13:32:09;2.72;;;1.10;;
63120;SDS011;54478;48.684;20.114;2023-04-01T13:34:25;1.08;;;0.80;;
63120;SDS011;54478;48.684;20.114;2023-04-01T13:42:57;0.90;;;0.80;;
63120;SDS011;54478;48.684;20.114;2023-04-01T13:48:24;3.63;;;0.98;;
63120;SDS011;54478;48.684;20.114;2023-04-01T13:56:45;4.22;;;1.83;;
63120;SDS011;54478;48.684;20.114;2023-04-01T14:02:14;3.33;;;1.70;;
63120;SDS011;54478;48.684;20.114;2023-04-01T14:08:01;1.23;;;0.90;;
63120;SDS011;54478;48.684;20.114;2023-04-01T14:10:34;4.40;;;1.50;;
63120;SDS011;54478;48.684;20.114;2023-04-01T14:13:26;2.53;;;1.48;;
63120;SDS011;54478;48.684;20.114;2023-04-01T14:16:23;2.38;;;1.63;;
63120;SDS011;54478;48.684;20.114;2023-04-01T14:19:08;1.33;;;1.13;;
63120;SDS011;54478;48.684;20.114;2023-04-01T14:21:56;1.52;;;1.33;;
63120;SDS011;54478;48.684;20.114;2023-04-01T14:27:45;2.30;;;1.10;;
63120;SDS011;54478;48.684;20.114;2023-04-01T14:30:27;1.40;;;1.10;;
63120;SDS011;54478;48.684;20.114;2023-04-01T14:41:32;2.13;;;0.80;;
63120;SDS011;54478;48.684;20.114;2023-04-01T14:49:47;1.70;;;0.90;;
63120;SDS011;54478;48.684;20.114;2023-04-01T14:52:22;1.50;;;1.00;;
63120;SDS011;54478;48.684;20.114;2023-04-01T14:54:54;1.50;;;1.20;;
63120;SDS011;54478;48.684;20.114;2023-04-01T14:57:28;1.50;;;1.10;;
63120;SDS011;54478;48.684;20.114;2023-04-01T15:16:17;2.30;;;0.90;;
63120;SDS011;54478;48.684;20.114;2023-04-01T15:24:26;1.05;;;0.95;;
63120;SDS011;54478;48.684;20.114;2023-04-01T15:32:41;2.25;;;1.10;;
63120;SDS011;54478;48.684;20.114;2023-04-01T15:35:19;2.75;;;1.73;;
63120;SDS011;54478;48.684;20.114;2023-04-01T15:38:17;2.92;;;1.20;;
63120;SDS011;54478;48.684;20.114;2023-04-01T15:44:02;3.35;;;1.88;;
63120;SDS011;54478;48.684;20.114;2023-04-01T15:49:26;8.02;;;5.53;;
63120;SDS011;54478;48.684;20.114;2023-04-01T16:00:26;5.70;;;3.00;;
63120;SDS011;54478;48.684;20.114;2023-04-01T16:03:17;7.07;;;3.53;;
63120;SDS011;54478;48.684;20.114;2023-04-01T16:08:34;11.98;;;5.18;;
63120;SDS011;54478;48.684;20.114;2023-04-01T16:11:25;4.70;;;2.70;;
63120;SDS011;54478;48.684;20.114;2023-04-01T16:17:17;9.25;;;4.93;;
63120;SDS011;54478;48.684;20.114;2023-04-01T16:20:03;11.38;;;6.55;;
63120;SDS011;54478;48.684;20.114;2023-04-01T16:22:39;6.72;;;2.60;;
63120;SDS011;54478;48.684;20.114;2023-04-01T16:25:20;7.47;;;2.55;;
63120;SDS011;54478;48.684;20.114;2023-04-01T16:31:03;11.05;;;4.53;;
63120;SDS011;54478;48.684;20.114;2023-04-01T16:36:20;10.00;;;5.28;;
63120;SDS011;54478;48.684;20.114;2023-04-01T16:44:27;3.35;;;1.70;;
63120;SDS011;54478;48.684;20.114;2023-04-01T16:46:58;9.32;;;2.60;;
63120;SDS011;54478;48.684;20.114;2023-04-01T16:49:39;4.93;;;2.40;;
63120;SDS011;54478;48.684;20.114;2023-04-01T16:52:13;5.45;;;2.00;;
63120;SDS011;54478;48.684;20.114;2023-04-01T16:54:51;5.60;;;2.65;;
63120;SDS011;54478;48.684;20.114;2023-04-01T16:57:28;10.60;;;3.67;;
63120;SDS011;54478;48.684;20.114;2023-04-01T17:02:52;11.20;;;6.15;;
63120;SDS011;54478;48.684;20.114;2023-04-01T17:05:33;13.57;;;6.45;;
63120;SDS011;54478;48.684;20.114;2023-04-01T17:10:58;17.33;;;8.55;;
63120;SDS011;54478;48.684;20.114;2023-04-01T17:19:25;21.88;;;11.43;;
63120;SDS011;54478;48.684;20.114;2023-04-01T17:30:24;15.43;;;7.60;;
63120;SDS011;54478;48.684;20.114;2023-04-01T17:49:33;31.48;;;12.80;;
63120;SDS011;54478;48.684;20.114;2023-04-01T17:52:17;73.45;;;31.95;;
63120;SDS011;54478;48.684;20.114;2023-04-01T17:55:15;26.17;;;13.82;;
63120;SDS011;54478;48.684;20.114;2023-04-01T18:00:46;26.08;;;11.73;;
63120;SDS011;54478;48.684;20.114;2023-04-01T18:06:21;24.98;;;12.80;;
63120;SDS011;54478;48.684;20.114;2023-04-01T18:21:07;5.57;;;3.42;;
63120;SDS011;54478;48.684;20.114;2023-04-01T18:23:52;11.70;;;4.97;;
63120;SDS011;54478;48.684;20.114;2023-04-01T18:26:32;7.28;;;3.03;;
63120;SDS011;54478;48.684;20.114;2023-04-01T18:29:03;6.00;;;3.50;;
63120;SDS011;54478;48.684;20.114;2023-04-01T18:31:42;5.60;;;3.15;;
63120;SDS011;54478;48.684;20.114;2023-04-01T18:37:25;13.23;;;6.25;;
63120;SDS011;54478;48.684;20.114;2023-04-01T18:45:33;6.72;;;3.90;;
63120;SDS011;54478;48.684;20.114;2023-04-01T18:51:16;13.98;;;6.55;;
63120;SDS011;54478;48.684;20.114;2023-04-01T18:53:58;34.17;;;12.55;;
63120;SDS011;54478;48.684;20.114;2023-04-01T18:56:35;22.88;;;10.50;;
63120;SDS011;54478;48.684;20.114;2023-04-01T19:02:04;15.32;;;8.77;;
63120;SDS011;54478;48.684;20.114;2023-04-01T19:04:37;12.73;;;6.18;;
63120;SDS011;54478;48.684;20.114;2023-04-01T19:10:17;11.23;;;7.03;;
63120;SDS011;54478;48.684;20.114;2023-04-01T19:21:33;7.15;;;4.47;;
63120;SDS011;54478;48.684;20.114;2023-04-01T19:24:25;9.25;;;4.80;;
63120;SDS011;54478;48.684;20.114;2023-04-01T19:29:50;14.05;;;6.15;;
63120;SDS011;54478;48.684;20.114;2023-04-01T19:35:20;3.85;;;2.40;;
63120;SDS011;54478;48.684;20.114;2023-04-01T19:37:58;10.23;;;4.03;;
63120;SDS011;54478;48.684;20.114;2023-04-01T19:40:37;7.90;;;4.68;;
63120;SDS011;54478;48.684;20.114;2023-04-01T19:46:19;7.97;;;5.00;;
63120;SDS011;54478;48.684;20.114;2023-04-01T19:51:30;11.00;;;5.20;;
63120;SDS011;54478;48.684;20.114;2023-04-01T19:56:55;16.02;;;7.38;;
63120;SDS011;54478;48.684;20.114;2023-04-01T20:02:50;14.77;;;7.38;;
63120;SDS011;54478;48.684;20.114;2023-04-01T20:08:17;3.17;;;2.38;;
63120;SDS011;54478;48.684;20.114;2023-04-01T20:10:52;7.55;;;5.07;;
63120;SDS011;54478;48.684;20.114;2023-04-01T20:13:30;4.38;;;2.53;;
63120;SDS011;54478;48.684;20.114;2023-04-01T20:16:01;6.95;;;4.45;;
63120;SDS011;54478;48.684;20.114;2023-04-01T20:18:34;9.07;;;5.43;;
63120;SDS011;54478;48.684;20.114;2023-04-01T20:23:41;16.58;;;9.68;;
63120;SDS011;54478;48.684;20.114;2023-04-01T20:26:13;14.13;;;9.57;;
63120;SDS011;54478;48.684;20.114;2023-04-01T20:28:47;13.32;;;7.22;;
63120;SDS011;54478;48.684;20.114;2023-04-01T20:31:34;8.30;;;5.75;;
63120;SDS011;54478;48.684;20.114;2023-04-01T20:37:21;8.80;;;4.53;;
63120;SDS011;54478;48.684;20.114;2023-04-01T20:45:48;15.32;;;8.70;;
63120;SDS011;54478;48.684;20.114;2023-04-01T20:51:19;13.98;;;7.95;;
63120;SDS011;54478;48.684;20.114;2023-04-01T20:57:05;16.67;;;6.82;;
63120;SDS011;54478;48.684;20.114;2023-04-01T21:02:47;13.85;;;7.07;;
63120;SDS011;54478;48.684;20.114;2023-04-01T21:21:42;9.90;;;4.95;;
63120;SDS011;54478;48.684;20.114;2023-04-01T21:24:30;13.57;;;7.30;;
63120;SDS011;54478;48.684;20.114;2023-04-01T21:27:28;12.57;;;6.72;;
63120;SDS011;54478;48.684;20.114;2023-04-01T21:43:31;11.00;;;4.07;;
63120;SDS011;54478;48.684;20.114;2023-04-01T21:54:27;9.32;;;4.63;;
63120;SDS011;54478;48.684;20.114;2023-04-01T22:00:26;12.80;;;5.68;;
63120;SDS011;54478;48.684;20.114;2023-04-01T22:05:54;15.38;;;6.75;;
63120;SDS011;54478;48.684;20.114;2023-04-01T22:11:04;10.88;;;5.25;;
63120;SDS011;54478;48.684;20.114;2023-04-01T22:19:15;11.88;;;5.28;;
63120;SDS011;54478;48.684;20.114;2023-04-01T22:27:34;19.83;;;8.70;;
63120;SDS011;54478;48.684;20.114;2023-04-01T22:30:11;14.63;;;7.70;;
63120;SDS011;54478;48.684;20.114;2023-04-01T22:32:52;13.05;;;6.93;;
63120;SDS011;54478;48.684;20.114;2023-04-01T22:41:15;12.77;;;6.28;;
63120;SDS011;54478;48.684;20.114;2023-04-01T22:43:55;13.18;;;4.88;;
63120;SDS011;54478;48.684;20.114;2023-04-01T22:49:15;7.32;;;3.55;;
63120;SDS011;54478;48.684;20.114;2023-04-01T22:51:49;7.10;;;3.33;;
63120;SDS011;54478;48.684;20.114;2023-04-01T22:54:45;10.63;;;5.20;;
63120;SDS011;54478;48.684;20.114;2023-04-01T22:57:17;11.80;;;6.10;;
63120;SDS011;54478;48.684;20.114;2023-04-01T23:00:05;15.05;;;6.63;;
63120;SDS011;54478;48.684;20.114;2023-04-01T23:02:46;13.73;;;6.80;;
63120;SDS011;54478;48.684;20.114;2023-04-01T23:05:28;11.93;;;5.97;;
63120;SDS011;54478;48.684;20.114;2023-04-01T23:10:58;9.38;;;3.78;;
63120;SDS011;54478;48.684;20.114;2023-04-01T23:13:31;11.57;;;5.50;;
63120;SDS011;54478;48.684;20.114;2023-04-01T23:16:07;8.80;;;5.10;;
63120;SDS011;54478;48.684;20.114;2023-04-01T23:21:28;13.40;;;7.13;;
63120;SDS011;54478;48.684;20.114;2023-04-01T23:24:03;8.63;;;5.10;;
63120;SDS011;54478;48.684;20.114;2023-04-01T23:26:52;9.85;;;4.88;;
63120;SDS011;54478;48.684;20.114;2023-04-01T23:29:25;10.20;;;5.15;;
63120;SDS011;54478;48.684;20.114;2023-04-01T23:31:59;8.55;;;3.92;;
63120;SDS011;54478;48.684;20.114;2023-04-01T23:34:27;9.45;;;4.40;;
63120;SDS011;54478;48.684;20.114;2023-04-01T23:37:02;7.40;;;4.18;;
63120;SDS011;54478;48.684;20.114;2023-04-01T23:39:39;9.57;;;4.20;;
63120;SDS011;54478;48.684;20.114;2023-04-01T23:47:20;7.78;;;3.20;;
63120;SDS011;54478;48.684;20.114;2023-04-01T23:49:52;6.15;;;3.10;;
63120;SDS011;54478;48.684;20.114;2023-04-01T23:52:25;5.40;;;3.08;;
63120;SDS011;54478;48.684;20.114;2023-04-01T23:54:54;7.95;;;3.97;;
63120;SDS011;54478;48.684;20.114;2023-04-01T23:57:30;7.25;;;3.80;;
